VOE50XQ LEMI-LEBL
Flight info
| Callsign | VOE50XQ |
|---|---|
| Flight time | 0h 52m |
| Altitude | 30000 |
| Route | RESTU N860 VLC DCT CASIM DCT MATEX |
| Aircraft | A320/M-SDE3FGHIRWY/LB1 |
Departure
| Time | 2026-04-18 08:05 |
|---|---|
| Airport | Region of Murcia International Airport (LEMI) |
Arrival
| Time | 2026-04-18 08:57 |
|---|---|
| Airport | Josep Tarradellas Barcelona-El Prat Airport (LEBL) |
| Time | Latitude | Longitude | Altitude | Speed | Heading |
|---|---|---|---|---|---|
| 2026-04-18 07:42 | 37.80463 | -1.12998 | 652 ft | 0 kts | 315° |
| 2026-04-18 07:57 | 37.80463 | -1.12997 | 652 ft | 2 kts | 315° |
| 2026-04-18 07:57 | 37.80445 | -1.12975 | 656 ft | 4 kts | 311° |
| 2026-04-18 07:57 | 37.80428 | -1.12948 | 655 ft | 4 kts | 303° |
| 2026-04-18 07:58 | 37.80419 | -1.12895 | 652 ft | 1 kts | 225° |
| 2026-04-18 07:58 | 37.80421 | -1.12892 | 652 ft | 0 kts | 225° |
| 2026-04-18 08:00 | 37.80387 | -1.12935 | 652 ft | 9 kts | 225° |
| 2026-04-18 08:00 | 37.80345 | -1.12989 | 652 ft | 9 kts | 225° |
| 2026-04-18 08:01 | 37.80302 | -1.13045 | 652 ft | 11 kts | 225° |
| 2026-04-18 08:01 | 37.80250 | -1.13111 | 652 ft | 10 kts | 225° |
| 2026-04-18 08:01 | 37.80193 | -1.13157 | 655 ft | 9 kts | 185° |
| 2026-04-18 08:01 | 37.80142 | -1.13112 | 652 ft | 10 kts | 132° |
| 2026-04-18 08:02 | 37.80083 | -1.13082 | 652 ft | 11 kts | 202° |
| 2026-04-18 08:02 | 37.80015 | -1.13162 | 652 ft | 15 kts | 224° |
| 2026-04-18 08:02 | 37.79933 | -1.13266 | 653 ft | 18 kts | 225° |
| 2026-04-18 08:02 | 37.79833 | -1.13394 | 653 ft | 22 kts | 226° |
| 2026-04-18 08:03 | 37.79715 | -1.13547 | 652 ft | 26 kts | 225° |
| 2026-04-18 08:03 | 37.79610 | -1.13680 | 652 ft | 21 kts | 225° |
| 2026-04-18 08:03 | 37.79499 | -1.13822 | 652 ft | 25 kts | 226° |
| 2026-04-18 08:03 | 37.79417 | -1.13829 | 652 ft | 12 kts | 131° |
| 2026-04-18 08:04 | 37.79398 | -1.13697 | 651 ft | 19 kts | 86° |
| 2026-04-18 08:04 | 37.79472 | -1.13552 | 650 ft | 22 kts | 45° |
| 2026-04-18 08:04 | 37.79671 | -1.13296 | 652 ft | 80 kts | 45° |
| 2026-04-18 08:04 | 37.80265 | -1.12533 | 655 ft | 159 kts | 45° |
| 2026-04-18 08:05 | 37.81117 | -1.11417 | 1140 ft | 187 kts | 46° |
| 2026-04-18 08:05 | 37.82035 | -1.10192 | 2091 ft | 195 kts | 47° |
| 2026-04-18 08:05 | 37.82975 | -1.08927 | 3090 ft | 198 kts | 47° |
| 2026-04-18 08:05 | 37.83908 | -1.07647 | 4051 ft | 199 kts | 48° |
| 2026-04-18 08:06 | 37.84841 | -1.06349 | 5016 ft | 199 kts | 49° |
| 2026-04-18 08:06 | 37.85847 | -1.05082 | 5723 ft | 215 kts | 42° |
| 2026-04-18 08:06 | 37.87065 | -1.03748 | 6163 ft | 248 kts | 41° |
| 2026-04-18 08:06 | 37.88419 | -1.02283 | 7080 ft | 261 kts | 41° |
| 2026-04-18 08:07 | 37.89799 | -1.00755 | 8215 ft | 266 kts | 41° |
| 2026-04-18 08:07 | 37.91189 | -0.99167 | 9347 ft | 272 kts | 42° |
| 2026-04-18 08:07 | 37.92573 | -0.97548 | 10307 ft | 276 kts | 43° |
| 2026-04-18 08:07 | 37.94084 | -0.96038 | 11335 ft | 283 kts | 28° |
| 2026-04-18 08:08 | 37.96034 | -0.95297 | 11850 ft | 308 kts | 2° |
| 2026-04-18 08:08 | 37.98262 | -0.95372 | 12327 ft | 333 kts | 356° |
| 2026-04-18 08:08 | 38.00499 | -0.95518 | 12780 ft | 354 kts | 356° |
| 2026-04-18 08:08 | 38.02995 | -0.95690 | 13590 ft | 363 kts | 356° |
| 2026-04-18 08:09 | 38.05536 | -0.95862 | 14446 ft | 369 kts | 356° |
| 2026-04-18 08:09 | 38.08114 | -0.96026 | 15274 ft | 374 kts | 356° |
| 2026-04-18 08:09 | 38.10726 | -0.96182 | 16098 ft | 379 kts | 357° |
| 2026-04-18 08:09 | 38.13383 | -0.96334 | 16920 ft | 384 kts | 357° |
| 2026-04-18 08:10 | 38.16065 | -0.96484 | 17750 ft | 389 kts | 357° |
| 2026-04-18 08:10 | 38.18782 | -0.96639 | 18554 ft | 394 kts | 357° |
| 2026-04-18 08:10 | 38.21533 | -0.96800 | 19264 ft | 398 kts | 357° |
| 2026-04-18 08:10 | 38.24317 | -0.96965 | 19984 ft | 403 kts | 357° |
| 2026-04-18 08:11 | 38.27133 | -0.97131 | 20691 ft | 407 kts | 357° |
| 2026-04-18 08:11 | 38.29978 | -0.97296 | 21373 ft | 412 kts | 356° |
| 2026-04-18 08:11 | 38.32861 | -0.97462 | 22033 ft | 416 kts | 356° |
| 2026-04-18 08:11 | 38.35765 | -0.97631 | 22696 ft | 420 kts | 356° |
| 2026-04-18 08:12 | 38.38698 | -0.97803 | 23345 ft | 424 kts | 356° |
| 2026-04-18 08:12 | 38.41659 | -0.97975 | 23923 ft | 428 kts | 356° |
| 2026-04-18 08:12 | 38.44646 | -0.98146 | 24415 ft | 432 kts | 356° |
| 2026-04-18 08:12 | 38.47665 | -0.98318 | 24901 ft | 435 kts | 356° |
| 2026-04-18 08:13 | 38.50699 | -0.98492 | 25386 ft | 438 kts | 356° |
| 2026-04-18 08:13 | 38.53719 | -0.98671 | 25851 ft | 442 kts | 356° |
| 2026-04-18 08:13 | 38.56799 | -0.98857 | 26315 ft | 445 kts | 356° |
| 2026-04-18 08:13 | 38.59901 | -0.99042 | 26764 ft | 448 kts | 356° |
| 2026-04-18 08:14 | 38.63061 | -0.99230 | 27206 ft | 451 kts | 356° |
| 2026-04-18 08:14 | 38.66170 | -0.99415 | 27624 ft | 454 kts | 356° |
| 2026-04-18 08:14 | 38.69341 | -0.99559 | 28024 ft | 458 kts | 359° |
| 2026-04-18 08:14 | 38.72525 | -0.99196 | 28414 ft | 463 kts | 8° |
| 2026-04-18 08:15 | 38.75666 | -0.98189 | 28789 ft | 467 kts | 17° |
| 2026-04-18 08:15 | 38.78671 | -0.96564 | 29145 ft | 472 kts | 26° |
| 2026-04-18 08:15 | 38.81580 | -0.94583 | 29484 ft | 474 kts | 27° |
| 2026-04-18 08:15 | 38.84500 | -0.92587 | 29811 ft | 476 kts | 27° |
| 2026-04-18 08:16 | 38.87420 | -0.90587 | 30151 ft | 477 kts | 27° |
| 2026-04-18 08:16 | 38.93216 | -0.86608 | 30197 ft | 469 kts | 27° |
| 2026-04-18 08:17 | 38.98967 | -0.82668 | 30194 ft | 468 kts | 27° |
| 2026-04-18 08:17 | 39.04709 | -0.78728 | 30196 ft | 468 kts | 27° |
| 2026-04-18 08:18 | 39.10440 | -0.74770 | 30196 ft | 467 kts | 27° |
| 2026-04-18 08:18 | 39.16172 | -0.70814 | 30199 ft | 467 kts | 27° |
| 2026-04-18 08:19 | 39.21906 | -0.66856 | 30196 ft | 467 kts | 27° |
| 2026-04-18 08:19 | 39.27630 | -0.62883 | 30193 ft | 467 kts | 27° |
| 2026-04-18 08:20 | 39.33321 | -0.58928 | 30193 ft | 467 kts | 27° |
| 2026-04-18 08:20 | 39.39044 | -0.54946 | 30192 ft | 467 kts | 27° |
| 2026-04-18 08:21 | 39.44762 | -0.50959 | 30190 ft | 467 kts | 27° |
| 2026-04-18 08:21 | 39.50460 | -0.46902 | 30189 ft | 467 kts | 29° |
| 2026-04-18 08:22 | 39.55959 | -0.42405 | 30188 ft | 468 kts | 32° |
| 2026-04-18 08:22 | 39.61373 | -0.37709 | 30184 ft | 468 kts | 32° |
| 2026-04-18 08:23 | 39.66811 | -0.33078 | 30180 ft | 468 kts | 31° |
| 2026-04-18 08:23 | 39.72283 | -0.28523 | 30187 ft | 467 kts | 31° |
| 2026-04-18 08:24 | 39.77765 | -0.23969 | 30184 ft | 467 kts | 31° |
| 2026-04-18 08:24 | 39.83241 | -0.19388 | 30178 ft | 467 kts | 31° |
| 2026-04-18 08:25 | 39.88696 | -0.14799 | 30175 ft | 467 kts | 31° |
| 2026-04-18 08:25 | 39.94161 | -0.10194 | 30176 ft | 467 kts | 31° |
| 2026-04-18 08:26 | 39.99579 | -0.05626 | 30174 ft | 467 kts | 31° |
| 2026-04-18 08:26 | 40.05035 | -0.01017 | 30177 ft | 468 kts | 31° |
| 2026-04-18 08:27 | 40.10494 | 0.03607 | 30180 ft | 468 kts | 31° |
| 2026-04-18 08:27 | 40.15955 | 0.08239 | 30178 ft | 468 kts | 31° |
| 2026-04-18 08:28 | 40.21440 | 0.12840 | 30173 ft | 467 kts | 27° |
| 2026-04-18 08:28 | 40.27441 | 0.15929 | 30179 ft | 463 kts | 13° |
| 2026-04-18 08:29 | 40.32637 | 0.17857 | 30177 ft | 464 kts | 14° |
| 2026-04-18 08:29 | 40.38799 | 0.20177 | 30176 ft | 464 kts | 14° |
| 2026-04-18 08:30 | 40.44998 | 0.22525 | 30177 ft | 464 kts | 14° |
| 2026-04-18 08:30 | 40.51080 | 0.25383 | 30142 ft | 466 kts | 28° |
| 2026-04-18 08:30 | 40.53699 | 0.27789 | 29667 ft | 456 kts | 40° |
| 2026-04-18 08:31 | 40.55826 | 0.30845 | 28965 ft | 450 kts | 53° |
| 2026-04-18 08:31 | 40.57385 | 0.34371 | 28267 ft | 445 kts | 65° |
| 2026-04-18 08:31 | 40.58411 | 0.38183 | 27560 ft | 440 kts | 72° |
| 2026-04-18 08:31 | 40.59311 | 0.42001 | 26888 ft | 435 kts | 72° |
| 2026-04-18 08:32 | 40.60205 | 0.45773 | 26259 ft | 429 kts | 72° |
| 2026-04-18 08:32 | 40.61084 | 0.49486 | 25865 ft | 422 kts | 72° |
| 2026-04-18 08:32 | 40.61950 | 0.53158 | 25498 ft | 418 kts | 72° |
| 2026-04-18 08:32 | 40.62808 | 0.56800 | 25118 ft | 415 kts | 72° |
| 2026-04-18 08:33 | 40.63661 | 0.60430 | 24749 ft | 412 kts | 72° |
| 2026-04-18 08:33 | 40.64501 | 0.64013 | 24377 ft | 409 kts | 72° |
| 2026-04-18 08:33 | 40.65335 | 0.67589 | 24011 ft | 406 kts | 72° |
| 2026-04-18 08:33 | 40.66162 | 0.71131 | 23621 ft | 403 kts | 72° |
| 2026-04-18 08:34 | 40.66983 | 0.74646 | 23244 ft | 400 kts | 72° |
| 2026-04-18 08:34 | 40.67795 | 0.78139 | 22881 ft | 398 kts | 72° |
| 2026-04-18 08:34 | 40.68605 | 0.81625 | 22530 ft | 395 kts | 72° |
| 2026-04-18 08:34 | 40.69404 | 0.85068 | 22164 ft | 392 kts | 72° |
| 2026-04-18 08:35 | 40.70198 | 0.88491 | 21813 ft | 390 kts | 72° |
| 2026-04-18 08:35 | 40.70978 | 0.91852 | 21468 ft | 387 kts | 72° |
| 2026-04-18 08:35 | 40.71762 | 0.95233 | 21118 ft | 385 kts | 72° |
| 2026-04-18 08:35 | 40.72539 | 0.98594 | 20775 ft | 382 kts | 72° |
| 2026-04-18 08:36 | 40.73305 | 1.01934 | 20428 ft | 380 kts | 72° |
| 2026-04-18 08:36 | 40.74072 | 1.05267 | 20086 ft | 377 kts | 72° |
| 2026-04-18 08:36 | 40.74831 | 1.08559 | 19748 ft | 375 kts | 72° |
| 2026-04-18 08:36 | 40.75583 | 1.11836 | 19415 ft | 373 kts | 72° |
| 2026-04-18 08:37 | 40.76327 | 1.15095 | 19082 ft | 370 kts | 72° |
| 2026-04-18 08:37 | 40.77067 | 1.18335 | 18753 ft | 368 kts | 72° |
| 2026-04-18 08:37 | 40.77803 | 1.21557 | 18418 ft | 366 kts | 72° |
| 2026-04-18 08:37 | 40.78537 | 1.24771 | 18066 ft | 363 kts | 72° |
| 2026-04-18 08:38 | 40.79263 | 1.27949 | 17744 ft | 362 kts | 72° |
| 2026-04-18 08:38 | 40.79984 | 1.31121 | 17414 ft | 360 kts | 72° |
| 2026-04-18 08:38 | 40.80699 | 1.34280 | 17082 ft | 359 kts | 72° |
| 2026-04-18 08:38 | 40.81409 | 1.37423 | 16776 ft | 357 kts | 72° |
| 2026-04-18 08:39 | 40.82120 | 1.40561 | 16447 ft | 355 kts | 72° |
| 2026-04-18 08:39 | 40.82825 | 1.43676 | 16142 ft | 354 kts | 72° |
| 2026-04-18 08:39 | 40.83528 | 1.46776 | 15829 ft | 352 kts | 72° |
| 2026-04-18 08:39 | 40.84225 | 1.49862 | 15512 ft | 350 kts | 72° |
| 2026-04-18 08:40 | 40.84918 | 1.52936 | 15204 ft | 348 kts | 72° |
| 2026-04-18 08:40 | 40.85605 | 1.56005 | 14890 ft | 347 kts | 72° |
| 2026-04-18 08:40 | 40.86284 | 1.59039 | 14581 ft | 345 kts | 72° |
| 2026-04-18 08:40 | 40.86963 | 1.62077 | 14278 ft | 343 kts | 73° |
| 2026-04-18 08:41 | 40.87427 | 1.65153 | 13964 ft | 342 kts | 81° |
| 2026-04-18 08:41 | 40.87761 | 1.68252 | 13612 ft | 340 kts | 81° |
| 2026-04-18 08:41 | 40.88091 | 1.71333 | 13217 ft | 338 kts | 81° |
| 2026-04-18 08:41 | 40.88422 | 1.74404 | 12829 ft | 336 kts | 81° |
| 2026-04-18 08:42 | 40.88749 | 1.77447 | 12451 ft | 334 kts | 81° |
| 2026-04-18 08:42 | 40.89073 | 1.80474 | 12076 ft | 332 kts | 81° |
| 2026-04-18 08:42 | 40.89397 | 1.83487 | 11703 ft | 330 kts | 81° |
| 2026-04-18 08:42 | 40.89717 | 1.86480 | 11336 ft | 328 kts | 81° |
| 2026-04-18 08:43 | 40.90033 | 1.89455 | 10977 ft | 326 kts | 81° |
| 2026-04-18 08:43 | 40.90345 | 1.92415 | 10593 ft | 324 kts | 81° |
| 2026-04-18 08:43 | 40.90654 | 1.95355 | 10250 ft | 323 kts | 81° |
| 2026-04-18 08:43 | 40.90953 | 1.98223 | 9880 ft | 303 kts | 81° |
| 2026-04-18 08:44 | 40.91230 | 2.00904 | 9496 ft | 289 kts | 81° |
| 2026-04-18 08:44 | 40.91504 | 2.03534 | 9113 ft | 287 kts | 81° |
| 2026-04-18 08:44 | 40.91897 | 2.06056 | 8736 ft | 283 kts | 70° |
| 2026-04-18 08:44 | 40.92788 | 2.08348 | 8361 ft | 280 kts | 53° |
| 2026-04-18 08:45 | 40.94115 | 2.10207 | 7991 ft | 278 kts | 38° |
| 2026-04-18 08:45 | 40.95739 | 2.11563 | 7617 ft | 277 kts | 28° |
| 2026-04-18 08:45 | 40.97418 | 2.12820 | 7255 ft | 276 kts | 28° |
| 2026-04-18 08:45 | 40.99083 | 2.14071 | 6900 ft | 275 kts | 28° |
| 2026-04-18 08:46 | 41.00745 | 2.15321 | 6538 ft | 275 kts | 28° |
| 2026-04-18 08:46 | 41.02409 | 2.16576 | 6156 ft | 275 kts | 29° |
| 2026-04-18 08:46 | 41.04063 | 2.17825 | 5782 ft | 273 kts | 29° |
| 2026-04-18 08:46 | 41.05714 | 2.19072 | 5440 ft | 272 kts | 29° |
| 2026-04-18 08:47 | 41.07359 | 2.20314 | 5123 ft | 272 kts | 29° |
| 2026-04-18 08:47 | 41.08998 | 2.21550 | 4808 ft | 271 kts | 29° |
| 2026-04-18 08:47 | 41.10630 | 2.22781 | 4473 ft | 269 kts | 29° |
| 2026-04-18 08:47 | 41.12255 | 2.24007 | 4218 ft | 268 kts | 29° |
| 2026-04-18 08:48 | 41.13879 | 2.25234 | 3967 ft | 268 kts | 29° |
| 2026-04-18 08:48 | 41.15491 | 2.26454 | 3724 ft | 266 kts | 29° |
| 2026-04-18 08:48 | 41.17056 | 2.27758 | 3470 ft | 265 kts | 38° |
| 2026-04-18 08:48 | 41.18350 | 2.29485 | 3334 ft | 265 kts | 52° |
| 2026-04-18 08:49 | 41.19351 | 2.31467 | 3203 ft | 251 kts | 57° |
| 2026-04-18 08:49 | 41.20272 | 2.33352 | 3082 ft | 237 kts | 57° |
| 2026-04-18 08:49 | 41.21157 | 2.35157 | 2946 ft | 231 kts | 57° |
| 2026-04-18 08:49 | 41.22030 | 2.36935 | 2827 ft | 229 kts | 57° |
| 2026-04-18 08:50 | 41.22901 | 2.38702 | 2703 ft | 228 kts | 57° |
| 2026-04-18 08:50 | 41.23954 | 2.40254 | 2573 ft | 228 kts | 36° |
| 2026-04-18 08:50 | 41.25394 | 2.41096 | 2460 ft | 228 kts | 11° |
| 2026-04-18 08:50 | 41.26974 | 2.41059 | 2356 ft | 230 kts | 347° |
| 2026-04-18 08:51 | 41.28434 | 2.40272 | 2314 ft | 231 kts | 333° |
| 2026-04-18 08:51 | 41.29810 | 2.39165 | 2312 ft | 232 kts | 328° |
| 2026-04-18 08:51 | 41.31159 | 2.37982 | 2306 ft | 233 kts | 327° |
| 2026-04-18 08:51 | 41.32507 | 2.36785 | 2310 ft | 233 kts | 327° |
| 2026-04-18 08:52 | 41.33842 | 2.35592 | 2317 ft | 227 kts | 327° |
| 2026-04-18 08:52 | 41.35113 | 2.34436 | 2302 ft | 218 kts | 323° |
| 2026-04-18 08:52 | 41.36118 | 2.32983 | 2312 ft | 212 kts | 303° |
| 2026-04-18 08:52 | 41.36690 | 2.31191 | 2330 ft | 211 kts | 283° |
| 2026-04-18 08:53 | 41.36781 | 2.29257 | 2311 ft | 210 kts | 263° |
| 2026-04-18 08:53 | 41.36389 | 2.27442 | 2313 ft | 200 kts | 244° |
| 2026-04-18 08:53 | 41.35821 | 2.25780 | 2305 ft | 195 kts | 244° |
| 2026-04-18 08:53 | 41.35268 | 2.24150 | 2201 ft | 190 kts | 245° |
| 2026-04-18 08:54 | 41.34734 | 2.22581 | 1992 ft | 184 kts | 244° |
| 2026-04-18 08:54 | 41.34217 | 2.21062 | 1758 ft | 174 kts | 245° |
| 2026-04-18 08:54 | 41.33735 | 2.19645 | 1534 ft | 163 kts | 245° |
| 2026-04-18 08:54 | 41.33273 | 2.18291 | 1332 ft | 157 kts | 245° |
| 2026-04-18 08:55 | 41.32843 | 2.17029 | 1140 ft | 143 kts | 245° |
| 2026-04-18 08:55 | 41.32439 | 2.15863 | 907 ft | 135 kts | 245° |
| 2026-04-18 08:55 | 41.32054 | 2.14743 | 693 ft | 131 kts | 246° |
| 2026-04-18 08:55 | 41.31691 | 2.13631 | 547 ft | 130 kts | 248° |
| 2026-04-18 08:56 | 41.31316 | 2.12533 | 372 ft | 131 kts | 246° |
| 2026-04-18 08:56 | 41.30933 | 2.11434 | 214 ft | 129 kts | 247° |
| 2026-04-18 08:56 | 41.30573 | 2.10373 | 85 ft | 127 kts | 247° |
| 2026-04-18 08:56 | 41.30217 | 2.09329 | 19 ft | 109 kts | 245° |
| 2026-04-18 08:57 | 41.29847 | 2.08250 | 21 ft | 44 kts | 245° |
| 2026-04-18 08:57 | 41.29755 | 2.07943 | 18 ft | 31 kts | 259° |
| 2026-04-18 08:57 | 41.29753 | 2.07694 | 20 ft | 24 kts | 279° |
| 2026-04-18 08:58 | 41.29872 | 2.07574 | 18 ft | 18 kts | 335° |
| 2026-04-18 08:58 | 41.29953 | 2.07628 | 18 ft | 16 kts | 64° |
| 2026-04-18 08:58 | 41.30005 | 2.07772 | 19 ft | 19 kts | 64° |
| 2026-04-18 08:58 | 41.30066 | 2.07948 | 18 ft | 19 kts | 65° |
| 2026-04-18 08:59 | 41.30117 | 2.08101 | 20 ft | 13 kts | 66° |
| 2026-04-18 08:59 | 41.30129 | 2.08137 | 20 ft | 1 kts | 66° |
| 2026-04-18 08:59 | 41.30136 | 2.08159 | 18 ft | 10 kts | 66° |
| 2026-04-18 08:59 | 41.30202 | 2.08170 | 21 ft | 12 kts | 329° |
| 2026-04-18 09:00 | 41.30262 | 2.08089 | 18 ft | 10 kts | 307° |
| 2026-04-18 09:00 | 41.30277 | 2.08063 | 18 ft | 1 kts | 307° |
| 2026-04-18 09:00 | 41.30289 | 2.08043 | 18 ft | 2 kts | 307° |
| 2026-04-18 09:00 | 41.30290 | 2.08041 | 18 ft | 0 kts | 307° |